Archival Weather

NSFA McMurdo Sound

NSFA McMurdo Sound, Antarctica (NZCM)

Report from: Friday, September 23, 2022 7:57 PM UTC
Current time: Sunday, December 4, 2022 12:56 PM UTC

Current weather
Weather history
Weather forecast

Present weatherLight snow
Temperature-15.5°C (4.1°F)
Wind chill-19.5°C (-3.2°F)
Dew point-20.2°C (-4.4°F)
Winds 3 kts (1.5 m/s, 3.5 mph) Vrb
Winds variableWinds variable
Visibility6.2 mi. (10 km)
Clouds Ceiling: Overcast 3,400 ft. (1,036 m)
Altimeter28.63 in.Hg (970 mB)
Precip. events Snow began 7:57 PM
Relative humidity67 %
Density altitude-2,299 ft. (-701 m)
Sea-level pressure107.0 kPa (1070 mB, 31.60 in.Hg)
Remarks Fully automated report
System requires maintenance
Special weather observation
Automated weather observing station with precipitation discriminator
Flight conditions Visual Meteorological Conditions
Raw dataSPECI NZCM 231957Z AUTO VRB03KT 9999 -SN OVC034 M16/M20 A2863 RMK AO2 SNB1957 SLP702 T11551202 $
An error has occurred. This application may no longer respond until reloaded. Reload 🗙